Central Sierra Snow Lab Weather observations

Data are for 10 minute period ending at time listed.
 Day   Time    Incoming  Reflected   Ave.   Ave.    Ave.    Vector  Max.    Ave.    Total    Snow   
  of    of      Solar     Solar      Air    Rel.    Wind    Wind    Wind   Baro.   Precip.   Depth  
Year   Day     Radiation Radiation   Temp.  Humid.  Speed   Dir.    Gust   Press.                   
2015   (PST)    Kw/m2     Kw/m2       F       %      mph     deg.    mph     mb.     in.      in.   
----------------------------------------------------------------------------------------------------
 212    5:50    0.041     999.000     57.1     58     2.6      25     4.1   799.50   12.88   -3.10  
 212    6:00    0.048     999.000     57.5     58     3.0      27     4.0   799.60   12.88   -3.10  
 212    6:10    0.057     999.000     57.8     59     3.0      27     3.6   799.60   12.88   -3.10  
 212    6:20    0.069     999.000     58.2     60     3.0      27     3.8   799.50   12.88   -3.20  
 212    6:30    0.057     999.000     58.7     61     2.2      30     3.3   799.40   12.88   -3.30  
 212    6:40    0.034     999.000     58.9     62     3.2      27     3.8   799.40   12.88   -3.20  
 212    6:50    0.030     999.000     58.8     62     2.1      26     3.6   799.50   12.88   -3.20  
 212    7:00    0.032     999.000     58.5     63     2.6      30     3.6   799.40   12.88   -3.20  
 212    7:10    0.040     999.000     58.5     62     3.1      32     4.7   799.40   12.87   -3.20  
 212    7:20    0.046     999.000     58.7     62     0.3      30     1.9   799.50   12.88   -3.30  
 212    7:30    0.080     999.000     58.7     64     1.4      23     3.8   799.30   12.88   -3.20  
 212    7:40    0.132     999.000     59.4     62     2.7      49     5.0   799.10   12.88   -3.20  
 212    7:50    0.203     999.000     60.5     63     2.3     197     5.8   799.10   12.88   -3.30  
 212    8:00    0.212     999.000     61.0     60     1.1     221     3.8   799.60   12.88   -3.30  
 212    8:10    0.226     999.000     62.8     57     1.5       6     3.3   799.70   12.88   -3.30  
 212    8:20    0.243     999.000     64.3     55     0.4      65     1.5   799.60   12.88   -3.60  
 212    8:30    0.331     999.000     65.8     52     0.9      82     2.5   799.70   12.87   -3.90  
 212    8:40    0.215     999.000     67.8     39     0.8     176     2.1   799.70   12.88   -3.60  
 212    8:50    0.171     999.000     67.9     46     0.4     158     1.7   799.50   12.88   -3.70  
 212    9:00    0.215     999.000     67.2     50     0.9     117     1.8   799.60   12.88   -3.70  
 212    9:10    0.386     999.000     67.6     49     2.0       5     5.7   799.40   12.88   -3.60  
 212    9:20    0.309     999.000     69.2     36     2.3     334     5.0   799.10   12.88   -3.60  
 212    9:30    0.308     999.000     68.6     41     2.4     182     4.8   799.10   12.87   -3.50  
 212    9:40    0.727     999.000     69.5     41     2.6     178     5.9   799.00   12.88   -3.70  
 212    9:50    0.706     999.000     71.9     36     2.7     172     4.8   799.10   12.86   -3.90  
 212   10:00    0.760     999.000     72.8     33     2.4     191     5.7   799.20   12.87   -4.20  
 212   10:10    0.350     999.000     73.1     32     1.9     221     5.9   799.20   12.87   -4.10  
 212   10:20    0.275     999.000     72.7     34     0.7     165     2.8   799.30   12.87   -4.20  
 212   10:30    0.305     999.000     72.6     35     0.7     236     1.9   799.30   12.88   -4.00  
 212   10:40    0.432     999.000     72.5     34     1.0     237     2.5   799.40   12.87   -4.10  
 212   10:50    0.379     999.000     73.5     33     1.3     188     2.5   799.30   12.86   -4.10  
 212   11:00    0.316     999.000     72.5     34     1.5     178     3.0   799.40   12.87   -4.00  
 212   11:10    0.472     999.000     73.5     32     0.7     190     2.9   799.40   12.87   -4.20  
 212   11:20    0.522     999.000     74.3     31     1.4     224     4.6   799.20   12.87   -4.20  
 212   11:30    0.363     999.000     74.2     32     1.6     237     3.6   799.10   12.87   -4.30  
 212   11:40    0.386     999.000     74.2     32     1.3     259     2.8   799.00   12.87   -4.20  
 212   11:50    0.414     999.000     74.6     31     1.8     180     3.6   799.00   12.87   -4.10  
 212   12:00    0.258     999.000     74.1     33     1.8     214     3.8   799.00   12.87   -4.00  
 212   12:10    0.109     999.000     73.4     33     1.2     244     3.3   799.00   12.87   -3.90  
 212   12:20    0.040     999.000     72.0     37     1.9      50     6.4   799.20   12.87   -3.80  
 212   12:30    0.032     999.000     69.7     44     2.0      46     4.9   799.40   12.87   -3.70  
 212   12:40    0.040     999.000     66.8     44     3.8     120    11.5   799.80   12.87   -3.30  
 212   12:50    0.089     999.000     67.9     35     1.9      57     5.3   799.80   12.87   -3.40  
 212   13:00    0.151     999.000     68.6     38     1.8      13     3.9   799.70   12.87   -3.40  
 212   13:10    0.086     999.000     68.8     36     1.9      41     6.4   799.80   12.88   -3.30  
 212   13:20    0.094     999.000     69.4     33     2.0      61     7.8   799.90   12.88   -3.40  
 212   13:30    0.058     999.000     67.3     42     2.6      99     7.2   800.30   12.89   -3.50  
 212   13:40    0.040     999.000     62.0     62     2.9      60     5.5   800.30   12.89   -3.40  
 212   13:50    0.143     999.000     59.5     72     2.9      30     6.8   800.00   12.90   -3.20  
 212   14:00    0.161     999.000     61.8     62     2.0      28     5.5   799.50   12.89   -3.20  
 212   14:10    0.213     999.000     63.4     56     1.6      75     5.3   799.40   12.89   -3.30  
 212   14:20    0.254     999.000     65.9     47     1.8      89     5.9   799.30   12.90   -3.20  
 212   14:30    0.140     999.000     66.8     44     1.9      38     4.2   799.20   12.90   -3.40  
 212   14:40    0.070     999.000     66.5     47     0.8     358     2.7   799.10   12.90   -3.50  
 212   14:50    0.056     999.000     65.3     55     1.5     342     2.9   798.90   12.89   -3.40  
 212   15:00    0.112     999.000     65.0     53     0.8     100     2.2   798.60   12.90   -3.40  
 212   15:10    0.154     999.000     65.4     54     0.4     112     1.6   798.60   12.89   -3.40  
 212   15:20    0.144     999.000     65.9     56     0.5     235     2.4   798.60   12.90   -3.40  
 212   15:30    0.080     999.000     66.0     58     1.0      31     2.3   798.50   12.90   -3.50  
 212   15:40    0.059     999.000     65.2     59     1.1      23     2.5   798.50   12.89   -3.40  
 212   15:50    0.079     999.000     64.6     63     2.0      21     3.2   798.40   12.90   -3.30  
 212   16:00    0.097     999.000     64.4     62     1.6      64     2.9   798.20   12.89   -3.40  
 212   16:10    0.132     999.000     65.2     57     0.9      91     1.8   798.20   12.89   -3.50  
 212   16:20    0.253     999.000     66.6     56     0.1     188     1.0   798.10   12.90   -3.30  
 212   16:30    0.206     999.000     68.4     55     0.2     183     1.9   798.00   12.90   -3.40  
 212   16:40    0.316     999.000     69.3     57     0.9     331     2.5   797.90   12.90   -3.40  
 212   16:50    0.250     999.000     71.1     43     1.6      68     3.6   797.70   12.90   -3.70  
 212   17:00    0.280     999.000     71.5     40     2.6     193     5.5   797.80   12.89   -3.70  
 212   17:10    0.325     999.000     73.0     36     0.8      11     2.9   797.70   12.90   -3.80  
 212   17:20    0.201     999.000     74.0     31     2.2       4     4.9   797.60   12.90   -3.90  
 212   17:30    0.225     999.000     73.7     29     1.5      22     5.8   797.40   12.90   -3.90  
 212   17:40    0.164     999.000     74.0     30     1.1      95     5.2   797.30   12.89   -3.90  
 212   17:50    0.135     999.000     72.4     31     1.9      99     6.3   797.40   12.90   -4.00  
 212   18:00    0.068     999.000     71.5     33     1.6     103     6.1   797.40   12.89   -4.00  
 212   18:10    0.035     999.000     69.3     40     1.4      48     3.0   797.30   12.89   -3.80  
 212   18:20    0.043     999.000     67.5     48     1.0      28     2.6   797.30   12.89   -3.70  
 212   18:30    0.030     999.000     66.3     54     1.2      26     2.4   797.30   12.89   -3.60  
 212   18:40    0.012     999.000     64.4     57     1.2      48     3.0   797.30   12.89   -3.40  
 212   18:50    0.009     999.000     63.1     58     1.3      36     2.8   797.40   12.89   -3.40  
 212   19:00    0.006     999.000     61.9     58     1.2      36     2.2   797.40   12.89   -3.40  
 212   19:10    0.004     999.000     60.9     60     2.3      27     3.2   797.40   12.90   -3.20  
 212   19:20    0.002     999.000     60.2     61     2.1      28     3.1   797.50   12.90   -3.20  
 212   19:30    0.001     999.000     59.6     63     2.7      26     3.5   797.60   12.89   -3.20  
 212   19:40    0.000     999.000     59.1     65     2.8      26     3.5   797.60   12.89   -3.20  
 212   19:50    0.000     999.000     58.7     66     2.9      26     3.4   797.60   12.90   -3.20  
 212   20:00    0.000     999.000     58.4     65     3.1      26     4.0   797.60   12.89   -3.20  
 212   20:10    0.000     999.000     58.2     65     2.8      30     3.7   797.70   12.90   -3.20  
 212   20:20    0.000     999.000     57.8     65     3.8      26     4.2   797.70   12.89   -3.10  
 212   20:30    0.000     999.000     57.3     66     3.3      27     4.1   797.70   12.89   -3.10  
 212   20:40    0.000     999.000     57.0     64     1.3      56     2.7   797.70   12.89   -3.00  
 212   20:50    0.000     999.000     56.9     63     2.0      30     3.4   797.70   12.89   -3.10  
 212   21:00    0.000     999.000     56.6     63     1.8      33     2.8   797.70   12.90   -3.20  
 212   21:10    0.000     999.000     56.3     64     2.0      36     3.3   797.70   12.90   -3.00  
 212   21:20    0.000     999.000     56.3     63     1.0      54     1.8   797.60   12.90   -3.00  
 212   21:30    0.000     999.000     56.6     62     2.4      23     3.4   797.50   12.90   -3.10  
 212   21:40    0.000     999.000     56.5     62     2.8      23     3.2   797.50   12.90   -3.20  
 212   21:50    0.000     999.000     56.5     61     2.4      26     4.0   797.50   12.90   -3.20  
 212   22:00    0.000     999.000     56.6     61     2.1      31     3.3   797.50   12.90   -3.10  
 212   22:10    0.000     999.000     56.7     61     1.4      38     3.4   797.40   12.90   -3.10  
 212   22:20    0.000     999.000     56.8     60     1.4      30     2.5   797.40   12.90   -3.10  
 212   22:30    0.000     999.000     56.7     60     1.3      39     2.4   797.40   12.90   -3.10  
 212   22:40    0.000     999.000     56.7     60     1.3      47     2.6   797.40   12.90   -3.10  
 212   22:50    0.000     999.000     56.7     59     1.6      45     2.6   797.40   12.90   -3.10  
 212   23:00    0.000     999.000     56.5     59     1.3      40     2.5   797.40   12.90   -3.00  
 212   23:10    0.000     999.000     56.2     60     0.9      44     1.8   797.40   12.89   -3.00  
 212   23:20    0.000     999.000     56.2     58     2.4      26     3.2   797.50   12.90   -3.10  
 212   23:30    0.000     999.000     56.1     58     2.7      21     3.4   797.40   12.89   -3.10  
 212   23:40    0.000     999.000     55.6     59     3.2      23     4.2   797.30   12.90   -3.10  
 212   23:50    0.000     999.000     55.3     59     3.8      25     4.3   797.30   12.89   -3.10  
 213    0:00    0.000     999.000     54.9     59     3.8      29     4.3   797.20   12.90   -3.10  
 213    0:10    0.000     999.000     54.8     59     2.1      36     3.9   797.10   12.90   -3.00  
 213    0:20    0.000     999.000     54.9     58     2.9      31     3.9   797.10   12.90   -3.10  
 213    0:30    0.000     999.000     54.8     58     3.2      30     4.3   797.00   12.90   -3.10  
 213    0:40    0.000     999.000     54.7     58     1.0      48     2.6   796.90   12.90   -3.00  
 213    0:50    0.000     999.000     54.7     55     1.2      40     2.9   796.80   12.90   -3.00  
 213    1:00    0.000     999.000     54.4     57     2.8      29     3.8   796.80   12.90   -3.10  
 213    1:10    0.000     999.000     54.3     58     3.7      25     4.3   796.70   12.90   -3.10  
 213    1:20    0.000     999.000     54.4     58     3.3      29     4.9   796.70   12.90   -3.10  
 213    1:30    0.000     999.000     54.1     58     3.2      36     5.0   796.70   12.90   -3.10  
 213    1:40    0.000     999.000     54.1     58     3.1      33     4.9   796.60   12.90   -3.00  
 213    1:50    0.000     999.000     54.2     58     4.0      29     6.1   796.60   12.90   -3.10  
 213    2:00    0.000     999.000     54.0     58     3.1      37     5.4   796.60   12.90   -3.00  
 213    2:10    0.000     999.000     53.7     59     4.2      27     5.0   796.60   12.90   -3.10  
 213    2:20    0.000     999.000     53.5     59     2.2      40     4.7   796.50   12.90   -2.90  
 213    2:30    0.000     999.000     53.4     60     3.7      26     4.2   796.60   12.90   -3.00  
 213    2:40    0.000     999.000     53.7     60     3.7      27     4.3   796.50   12.90   -3.10  
 213    2:50    0.000     999.000     53.8     61     3.7      28     4.7   796.50   12.90   -3.10  
 213    3:00    0.000     999.000     54.0     59     3.4      29     4.7   796.40   12.90   -3.10  
 213    3:10    0.000     999.000     54.3     59     2.8      28     4.6   796.40   12.90   -3.10  
 213    3:20    0.000     999.000     54.3     58     0.9      35     1.6   796.40   12.90   -3.10  
 213    3:30    0.000     999.000     54.3     59     3.0      28     3.8   796.40   12.90   -3.10  
 213    3:40    0.000     999.000     54.0     59     2.5      31     3.7   796.40   12.90   -3.10  
 213    3:50    0.000     999.000     53.6     62     3.9      28     4.7   796.40   12.90   -3.00  
 213    4:00    0.000     999.000     53.2     63     3.7      29     4.6   796.40   12.90   -3.00  
 213    4:10    0.000     999.000     52.8     64     3.8      29     4.6   796.40   12.90   -3.10  
 213    4:20    0.000     999.000     52.6     62     1.8      32     3.3   796.50   12.90   -3.00  
 213    4:30    0.000     999.000     52.5     63     3.4      29     4.7   796.60   12.91   -3.10  
 213    4:40    0.000     999.000     52.4     64     4.3      27     4.9   796.70   12.91   -3.10  
 213    4:50    0.000     999.000     52.4     64     4.6      25     5.0   796.70   12.90   -3.00  
 213    5:00    0.001     999.000     52.3     64     4.7      25     5.0   796.80   12.90   -3.00  
 213    5:10    0.001     999.000     52.2     65     4.7      25     5.1   796.90   12.90   -3.00  
 213    5:20    0.004     999.000     52.3     65     4.5      24     4.9   797.00   12.90   -3.00  
 213    5:30    0.012     999.000     52.3     65     4.2      28     4.5   797.10   12.91   -3.00  
 213    5:40    0.015     999.000     52.7     66     4.4      27     4.7   797.10   12.90   -3.10  

Return to Central Sierra Snow Lab graphs page.


Western Regional Climate Center,wrcc@dri.edu